Time;durP1;ratioP1;P1;durP2;ratioP2;P2;SDS_P1;SDS_P2;PMS_P1;PMS_P2;Temp;Humidity;BMP_temperature;BMP_pressure;BME280_temperature;BME280_humidity;BME280_pressure;Samples;Min_cycle;Max_cycle;Signal;HPM_P1;HPM_P2
2023/08/25 00:01:49;;;;;;;9.50;3.00;;;;;;;18.47;82.76;99979.65;110033;1274;22185;-59
2023/08/25 00:04:21;;;;;;;11.70;3.70;;;;;;;18.48;82.92;99973.19;109986;1280;22863;-57
2023/08/25 00:06:52;;;;;;;11.30;3.70;;;;;;;18.50;82.90;99971.46;109991;1280;23121;-59
2023/08/25 00:09:25;;;;;;;8.10;3.50;;;;;;;18.52;82.91;99971.33;110025;1280;22167;-59
2023/08/25 00:11:57;;;;;;;7.60;3.20;;;;;;;18.54;82.94;99969.96;110014;1279;22278;-59
2023/08/25 00:14:28;;;;;;;10.50;3.20;;;;;;;18.54;83.04;99968.50;110021;1280;22133;-58
2023/08/25 00:17:01;;;;;;;9.10;3.20;;;;;;;18.54;83.06;99969.64;110011;1277;23018;-58
2023/08/25 00:19:32;;;;;;;9.50;3.60;;;;;;;18.54;83.20;99965.88;110024;1280;22191;-59
2023/08/25 00:22:04;;;;;;;9.50;3.00;;;;;;;18.54;83.10;99967.21;110043;1275;22123;-59
2023/08/25 00:24:38;;;;;;;12.00;3.40;;;;;;;18.56;83.16;99964.11;110014;1279;22155;-59
2023/08/25 00:27:09;;;;;;;9.80;3.00;;;;;;;18.58;83.13;99955.59;110044;1280;22219;-59
2023/08/25 00:29:41;;;;;;;11.00;4.50;;;;;;;18.60;83.16;99943.85;109997;1280;22163;-59
2023/08/25 00:32:13;;;;;;;9.50;3.20;;;;;;;18.60;83.22;99933.77;110002;1280;23280;-59
2023/08/25 00:34:45;;;;;;;10.00;3.40;;;;;;;18.61;83.28;99934.00;110029;1280;22258;-59
2023/08/25 00:37:16;;;;;;;10.70;3.50;;;;;;;18.63;83.32;99930.58;110034;1280;22164;-58
2023/08/25 00:39:47;;;;;;;13.80;4.20;;;;;;;18.63;83.46;99924.30;110010;1280;22184;-59
2023/08/25 00:42:19;;;;;;;9.50;3.20;;;;;;;18.63;83.53;99916.38;109995;1280;22192;-59
2023/08/25 00:44:50;;;;;;;10.80;3.30;;;;;;;18.63;83.47;99908.77;110024;1274;22289;-59
2023/08/25 00:47:24;;;;;;;9.00;4.10;;;;;;;18.63;83.64;99911.29;110017;1276;22172;-59
2023/08/25 00:49:56;;;;;;;10.70;3.90;;;;;;;18.63;83.75;99915.21;110005;1277;22342;-59
2023/08/25 00:52:28;;;;;;;10.40;3.80;;;;;;;18.61;83.69;99906.77;109995;1279;22971;-58
2023/08/25 00:55:00;;;;;;;9.20;3.60;;;;;;;18.62;83.73;99897.48;110001;1268;22144;-58
2023/08/25 00:57:32;;;;;;;9.80;3.90;;;;;;;18.63;83.68;99893.01;109955;1279;22325;-59
2023/08/25 01:00:06;;;;;;;8.70;3.70;;;;;;;18.64;83.69;99891.60;110000;1280;22226;-59
2023/08/25 01:02:38;;;;;;;9.20;3.50;;;;;;;18.65;83.88;99887.77;110004;1269;22189;-60
2023/08/25 01:05:11;;;;;;;10.00;3.50;;;;;;;18.66;83.75;99887.80;109992;1280;22299;-60
2023/08/25 01:07:43;;;;;;;11.30;3.90;;;;;;;18.66;83.80;99891.70;110020;1279;22334;-59
2023/08/25 01:10:16;;;;;;;9.30;3.90;;;;;;;18.66;83.87;99894.59;109951;1280;22662;-60
2023/08/25 01:13:00;;;;;;;11.40;3.70;;;;;;;18.67;83.80;99896.58;109995;1280;22211;-60
2023/08/25 01:15:35;;;;;;;9.60;3.60;;;;;;;18.68;83.69;99904.05;109989;1275;23400;-60
2023/08/25 01:18:21;;;;;;;13.40;5.20;;;;;;;18.70;83.67;99901.55;110018;1273;22178;-60
2023/08/25 01:20:56;;;;;;;13.90;4.90;;;;;;;18.70;83.70;99902.88;110051;1276;22851;-60
2023/08/25 01:23:34;;;;;;;9.90;4.10;;;;;;;18.71;83.71;99899.94;110046;1280;22198;-59
2023/08/25 01:26:07;;;;;;;13.80;4.60;;;;;;;18.71;83.67;99903.42;110029;1276;22191;-60
2023/08/25 01:28:42;;;;;;;14.90;4.60;;;;;;;18.72;83.71;99896.84;110021;1280;22908;-60
2023/08/25 01:31:13;;;;;;;13.90;4.30;;;;;;;18.73;83.55;99896.70;109988;1277;23235;-59
2023/08/25 01:33:46;;;;;;;11.80;3.90;;;;;;;18.74;83.52;99898.48;110039;1278;22169;-60
2023/08/25 01:36:25;;;;;;;10.90;5.10;;;;;;;18.74;83.60;99901.20;109992;1280;22188;-59
2023/08/25 01:39:03;;;;;;;13.40;5.10;;;;;;;18.75;83.66;99905.05;110017;1273;21984;-61
2023/08/25 01:41:42;;;;;;;16.40;5.50;;;;;;;18.73;83.61;99906.63;110018;1272;22217;-58
2023/08/25 01:44:18;;;;;;;15.00;4.70;;;;;;;18.73;83.77;99901.33;110029;1276;22154;-59
2023/08/25 01:46:52;;;;;;;14.50;5.20;;;;;;;18.74;83.81;99905.99;110034;1274;22194;-57
2023/08/25 01:49:25;;;;;;;14.40;5.30;;;;;;;18.75;83.84;99908.17;110042;1276;22146;-60
2023/08/25 01:51:56;;;;;;;14.10;5.60;;;;;;;18.76;83.81;99900.70;110021;1273;22139;-61
2023/08/25 01:54:27;;;;;;;15.60;5.60;;;;;;;18.77;83.72;99899.70;110011;1280;22183;-60
2023/08/25 01:56:58;;;;;;;12.40;5.20;;;;;;;18.78;83.83;99887.98;110015;1278;22241;-60
2023/08/25 01:59:29;;;;;;;14.80;5.40;;;;;;;18.80;83.86;99878.42;110056;1276;22171;-60
2023/08/25 02:02:00;;;;;;;15.00;5.10;;;;;;;18.79;83.79;99879.03;110003;1279;22158;-58
2023/08/25 02:04:31;;;;;;;16.50;4.90;;;;;;;18.79;83.75;99874.38;110014;1280;22161;-58
2023/08/25 02:07:02;;;;;;;14.90;5.70;;;;;;;18.80;83.83;99867.63;110029;1280;22210;-60
2023/08/25 02:09:33;;;;;;;13.40;5.30;;;;;;;18.82;83.91;99867.34;110011;1280;22826;-60
2023/08/25 02:12:05;;;;;;;15.20;5.00;;;;;;;18.84;83.91;99859.94;110002;1279;22163;-58
2023/08/25 02:14:36;;;;;;;12.10;5.00;;;;;;;18.85;83.89;99864.60;110016;1273;23010;-59
2023/08/25 02:17:07;;;;;;;13.80;5.00;;;;;;;18.84;83.89;99857.67;110007;1279;22154;-60
2023/08/25 02:19:38;;;;;;;13.60;5.90;;;;;;;18.84;83.93;99857.52;110038;1279;22205;-59
2023/08/25 02:22:09;;;;;;;14.00;5.70;;;;;;;18.84;83.92;99849.94;110015;1280;22197;-60
2023/08/25 02:24:40;;;;;;;13.10;5.70;;;;;;;18.84;83.93;99834.68;110002;1276;22155;-60
2023/08/25 02:27:10;;;;;;;13.60;5.50;;;;;;;18.85;83.89;99823.72;110021;1280;22223;-59
2023/08/25 02:29:41;;;;;;;13.90;5.50;;;;;;;18.85;83.93;99815.98;110011;1273;22351;-59
2023/08/25 02:32:12;;;;;;;17.70;6.20;;;;;;;18.85;83.92;99817.04;110036;1280;22670;-61
2023/08/25 02:34:43;;;;;;;15.40;5.60;;;;;;;18.84;84.13;99827.70;110004;1276;22183;-59
2023/08/25 02:37:15;;;;;;;17.30;6.60;;;;;;;18.81;84.14;99820.61;110009;1280;22163;-59
2023/08/25 02:39:45;;;;;;;15.60;5.70;;;;;;;18.81;84.31;99822.61;110009;1280;22145;-60
2023/08/25 02:42:16;;;;;;;12.60;5.10;;;;;;;18.82;84.40;99828.16;109979;1279;22401;-60
2023/08/25 02:44:47;;;;;;;23.40;6.30;;;;;;;18.82;84.39;99822.44;110029;1280;22173;-59
2023/08/25 02:47:18;;;;;;;17.10;6.00;;;;;;;18.84;84.39;99817.92;110000;1280;22214;-60
2023/08/25 02:49:49;;;;;;;18.00;5.70;;;;;;;18.83;84.29;99819.27;110019;1279;22167;-60
2023/08/25 02:52:20;;;;;;;16.10;6.50;;;;;;;18.82;84.40;99819.34;110012;1276;22297;-60
2023/08/25 02:54:51;;;;;;;14.20;6.00;;;;;;;18.82;84.42;99819.77;110007;1276;22318;-60
2023/08/25 02:57:22;;;;;;;17.50;5.70;;;;;;;18.84;84.44;99825.43;110040;1280;22192;-60
2023/08/25 02:59:53;;;;;;;15.70;5.50;;;;;;;18.84;84.62;99829.55;110013;1273;22965;-60
2023/08/25 03:02:24;;;;;;;18.30;6.70;;;;;;;18.84;84.59;99828.16;109998;1273;22153;-59
2023/08/25 03:04:56;;;;;;;17.80;7.60;;;;;;;18.86;84.66;99830.33;109982;1280;22158;-59
2023/08/25 03:07:27;;;;;;;13.40;5.80;;;;;;;18.87;84.60;99831.33;109986;1273;22326;-60
2023/08/25 03:09:58;;;;;;;15.50;6.40;;;;;;;18.89;84.69;99826.59;109999;1274;23259;-59
2023/08/25 03:12:29;;;;;;;16.20;6.50;;;;;;;18.90;84.80;99826.27;109996;1276;22190;-59
2023/08/25 03:15:00;;;;;;;15.40;6.60;;;;;;;18.91;84.76;99817.60;110012;1279;22141;-59
2023/08/25 03:17:31;;;;;;;17.90;6.90;;;;;;;18.92;84.83;99810.59;110033;1279;22184;-60
2023/08/25 03:20:02;;;;;;;16.00;6.30;;;;;;;18.92;84.92;99805.09;110012;1273;22203;-60
2023/08/25 03:22:34;;;;;;;16.90;6.10;;;;;;;18.91;84.81;99801.91;109980;1280;22259;-61
2023/08/25 03:25:05;;;;;;;18.20;6.70;;;;;;;18.91;84.91;99802.48;109986;1270;22158;-60
2023/08/25 03:27:39;;;;;;;16.70;6.70;;;;;;;18.91;84.86;99795.20;110001;1279;23168;-59
2023/08/25 03:30:12;;;;;;;16.40;6.50;;;;;;;18.92;84.90;99796.86;109970;1280;22316;-58
2023/08/25 03:32:43;;;;;;;15.80;7.00;;;;;;;18.94;84.93;99791.98;110004;1280;22196;-58
2023/08/25 03:35:14;;;;;;;16.10;5.80;;;;;;;18.95;84.86;99790.13;109994;1276;22159;-58
2023/08/25 03:37:45;;;;;;;17.90;6.30;;;;;;;18.96;84.88;99781.40;109981;1280;22420;-58
2023/08/25 03:40:19;;;;;;;16.40;6.00;;;;;;;18.98;84.95;99778.98;110001;1280;22190;-59
2023/08/25 03:42:50;;;;;;;16.90;5.90;;;;;;;18.99;84.96;99780.92;109987;1280;23012;-59
2023/08/25 03:45:21;;;;;;;17.30;7.00;;;;;;;19.00;85.01;99781.47;109998;1280;22222;-59
2023/08/25 03:47:53;;;;;;;15.30;6.00;;;;;;;19.02;85.07;99779.10;109980;1280;22315;-57
2023/08/25 03:50:24;;;;;;;17.70;6.80;;;;;;;19.05;85.40;99776.31;109975;1277;22222;-59
2023/08/25 03:52:55;;;;;;;16.80;5.80;;;;;;;19.04;85.24;99783.06;110002;1274;22319;-59
2023/08/25 03:55:26;;;;;;;15.50;6.00;;;;;;;19.02;85.28;99788.24;110027;1279;22273;-59
2023/08/25 03:57:57;;;;;;;16.50;6.40;;;;;;;19.01;85.30;99786.02;109977;1280;22212;-59
2023/08/25 04:00:28;;;;;;;16.40;5.60;;;;;;;18.99;85.29;99785.54;109966;1280;22109;-58
2023/08/25 04:02:58;;;;;;;16.90;6.60;;;;;;;18.99;85.45;99775.42;109996;1280;22347;-59
2023/08/25 04:05:30;;;;;;;17.90;6.10;;;;;;;18.98;85.53;99766.49;109967;1280;22147;-59
2023/08/25 04:08:01;;;;;;;16.90;6.50;;;;;;;18.95;85.64;99758.64;109984;1273;22198;-59
2023/08/25 04:10:31;;;;;;;17.00;6.50;;;;;;;18.94;85.90;99754.95;109974;1273;22241;-58
2023/08/25 04:13:02;;;;;;;11.90;4.80;;;;;;;18.95;86.12;99749.95;109974;1273;22343;-59
2023/08/25 04:15:33;;;;;;;16.40;6.60;;;;;;;18.96;86.15;99750.19;109996;1276;23032;-59
2023/08/25 04:18:04;;;;;;;15.00;5.70;;;;;;;18.96;86.14;99752.19;110016;1280;22235;-58
2023/08/25 04:20:35;;;;;;;15.70;6.20;;;;;;;18.96;86.19;99754.23;109980;1277;23079;-59
2023/08/25 04:23:06;;;;;;;13.70;6.10;;;;;;;18.97;86.13;99752.63;109985;1273;22211;-59
2023/08/25 04:25:37;;;;;;;16.80;6.80;;;;;;;18.98;86.41;99742.94;109982;1279;22250;-59
2023/08/25 04:28:08;;;;;;;15.40;6.60;;;;;;;18.99;86.41;99732.05;109981;1279;22202;-58
2023/08/25 04:30:39;;;;;;;15.90;6.30;;;;;;;18.99;86.28;99728.98;109977;1280;23433;-58
2023/08/25 04:33:11;;;;;;;15.10;6.40;;;;;;;18.99;86.36;99724.44;109994;1273;22372;-61
2023/08/25 04:35:41;;;;;;;18.00;5.90;;;;;;;19.00;86.22;99719.49;109989;1271;22224;-57
2023/08/25 04:38:12;;;;;;;21.50;5.50;;;;;;;19.01;86.07;99719.39;109995;1272;22517;-58
2023/08/25 04:40:43;;;;;;;18.10;6.40;;;;;;;19.03;86.10;99721.26;110006;1273;22126;-58
2023/08/25 04:43:14;;;;;;;15.40;6.40;;;;;;;19.04;86.23;99724.94;109996;1279;22201;-59
2023/08/25 04:45:45;;;;;;;18.10;5.70;;;;;;;19.05;86.43;99733.29;109998;1273;22282;-59
2023/08/25 04:48:15;;;;;;;16.70;5.80;;;;;;;19.07;86.31;99734.64;109994;1279;22880;-59
2023/08/25 04:50:47;;;;;;;19.40;5.90;;;;;;;19.07;86.33;99740.24;109989;1272;22356;-59
2023/08/25 04:53:18;;;;;;;20.00;6.40;;;;;;;19.09;86.89;99738.75;110000;1273;22325;-59
2023/08/25 04:55:50;;;;;;;16.70;6.30;;;;;;;19.11;86.75;99739.21;109991;1273;22550;-59
2023/08/25 04:58:22;;;;;;;18.30;5.70;;;;;;;19.13;86.67;99735.17;110000;1273;22155;-59
2023/08/25 05:00:54;;;;;;;15.50;5.30;;;;;;;19.15;86.71;99736.00;109971;1279;22319;-59
2023/08/25 05:03:25;;;;;;;18.20;5.50;;;;;;;19.18;86.65;99737.11;109994;1274;22287;-59
2023/08/25 05:05:56;;;;;;;21.00;6.20;;;;;;;19.20;86.44;99737.82;109982;1273;23126;-57
2023/08/25 05:08:27;;;;;;;18.70;6.00;;;;;;;19.21;86.27;99739.89;109984;1280;22206;-59
2023/08/25 05:10:58;;;;;;;18.10;6.10;;;;;;;19.23;86.42;99739.80;109967;1271;22257;-59
2023/08/25 05:13:30;;;;;;;18.30;7.00;;;;;;;19.26;86.45;99736.96;109971;1277;22259;-59
2023/08/25 05:16:00;;;;;;;14.30;5.50;;;;;;;19.27;86.47;99733.84;109959;1273;22189;-59
2023/08/25 05:18:32;;;;;;;17.70;5.70;;;;;;;19.28;86.57;99740.60;109997;1276;22241;-59
2023/08/25 05:21:04;;;;;;;20.00;6.40;;;;;;;19.30;86.87;99744.73;110006;1280;22175;-58
2023/08/25 05:23:36;;;;;;;17.90;6.00;;;;;;;19.32;86.88;99742.01;110000;1280;22253;-59
2023/08/25 05:26:08;;;;;;;15.30;6.20;;;;;;;19.34;86.81;99732.46;109991;1280;22231;-59
2023/08/25 05:28:39;;;;;;;19.90;5.80;;;;;;;19.37;86.98;99724.98;110030;1279;22185;-59
2023/08/25 05:31:10;;;;;;;13.60;5.60;;;;;;;19.41;87.25;99721.23;109958;1270;22189;-59
2023/08/25 05:33:41;;;;;;;16.40;6.40;;;;;;;19.45;87.39;99719.34;110024;1264;22249;-59
2023/08/25 05:36:12;;;;;;;17.80;6.80;;;;;;;19.47;87.30;99716.05;109979;1279;22288;-61
2023/08/25 05:38:43;;;;;;;22.90;6.40;;;;;;;19.51;87.32;99722.95;109989;1279;23005;-61
2023/08/25 05:41:14;;;;;;;18.30;6.30;;;;;;;19.53;87.33;99726.19;110001;1279;22435;-61
2023/08/25 05:43:46;;;;;;;17.00;6.40;;;;;;;19.57;87.19;99720.59;109955;1280;22899;-59
2023/08/25 05:46:18;;;;;;;14.20;6.30;;;;;;;19.61;87.17;99718.47;109954;1279;22225;-59
2023/08/25 05:48:49;;;;;;;16.60;6.40;;;;;;;19.63;87.26;99721.65;109988;1271;22182;-59
2023/08/25 05:51:21;;;;;;;16.20;6.30;;;;;;;19.65;86.97;99708.83;109972;1273;23065;-59
2023/08/25 05:53:52;;;;;;;18.90;6.60;;;;;;;19.69;87.37;99713.10;109988;1274;22729;-59
2023/08/25 05:56:23;;;;;;;16.40;6.80;;;;;;;19.72;87.37;99715.50;109850;1270;22403;-59
2023/08/25 05:58:54;;;;;;;19.80;6.00;;;;;;;19.76;87.28;99713.63;109959;1264;23157;-61
2023/08/25 06:01:25;;;;;;;14.30;5.60;;;;;;;19.81;87.34;99713.60;109972;1273;22196;-60
2023/08/25 06:03:57;;;;;;;17.20;6.00;;;;;;;19.87;87.35;99710.62;109983;1272;22355;-61
2023/08/25 06:06:28;;;;;;;15.90;5.90;;;;;;;19.92;87.47;99709.48;109934;1279;22342;-62
2023/08/25 06:09:00;;;;;;;15.40;5.90;;;;;;;19.98;87.54;99705.52;109951;1271;22194;-61
2023/08/25 06:11:30;;;;;;;15.90;6.20;;;;;;;20.05;87.81;99702.33;109924;1273;22208;-61
2023/08/25 06:14:02;;;;;;;16.70;6.50;;;;;;;20.12;87.61;99702.50;109919;1271;22316;-61
2023/08/25 06:16:33;;;;;;;21.90;6.20;;;;;;;20.20;87.49;99712.23;109957;1273;23718;-59
2023/08/25 06:19:04;;;;;;;15.30;5.40;;;;;;;20.27;87.48;99715.76;109983;1277;22354;-61
2023/08/25 06:21:36;;;;;;;15.40;5.30;;;;;;;20.34;87.69;99719.46;109978;1271;22361;-60
2023/08/25 06:24:10;;;;;;;16.20;5.20;;;;;;;20.43;87.90;99714.51;109959;1267;22321;-62
2023/08/25 06:26:42;;;;;;;15.00;5.90;;;;;;;20.51;87.82;99714.63;109959;1271;23734;-61
2023/08/25 06:29:13;;;;;;;14.80;6.00;;;;;;;20.60;87.95;99711.54;109943;1271;22323;-62
2023/08/25 06:31:47;;;;;;;13.20;5.90;;;;;;;20.68;87.96;99708.81;109977;1274;22175;-60
2023/08/25 06:34:18;;;;;;;19.30;7.90;;;;;;;20.78;88.04;99708.91;109988;1271;22147;-59
2023/08/25 06:36:49;;;;;;;22.00;8.20;;;;;;;20.88;87.87;99710.71;109955;1265;23101;-59
2023/08/25 06:39:20;;;;;;;15.10;6.40;;;;;;;20.96;87.78;99706.58;109986;1272;22109;-59
2023/08/25 06:41:51;;;;;;;26.70;7.00;;;;;;;21.06;87.84;99706.77;109953;1264;22287;-59
2023/08/25 06:44:25;;;;;;;14.40;5.90;;;;;;;21.16;87.58;99712.69;109951;1273;22207;-59
2023/08/25 06:46:55;;;;;;;14.60;5.40;;;;;;;21.25;87.79;99707.33;109937;1264;22319;-59
2023/08/25 06:49:26;;;;;;;16.50;5.50;;;;;;;21.34;87.68;99704.95;109892;1272;22337;-59
2023/08/25 06:51:57;;;;;;;16.20;5.20;;;;;;;21.46;87.82;99710.38;109989;1272;22994;-58
2023/08/25 06:54:28;;;;;;;15.10;5.30;;;;;;;21.58;87.61;99713.19;109974;1271;22281;-59
2023/08/25 06:56:59;;;;;;;12.90;5.00;;;;;;;21.69;87.42;99712.61;109962;1271;22498;-59
2023/08/25 06:59:30;;;;;;;21.30;10.50;;;;;;;21.79;87.25;99716.52;109974;1264;22332;-59
2023/08/25 07:02:02;;;;;;;15.40;5.70;;;;;;;21.87;86.87;99717.77;109896;1271;23400;-61
2023/08/25 07:04:33;;;;;;;14.50;4.60;;;;;;;21.94;86.69;99718.91;109949;1272;22380;-61
2023/08/25 07:07:07;;;;;;;13.50;4.60;;;;;;;22.00;86.68;99710.44;109943;1271;22333;-60
2023/08/25 07:09:38;;;;;;;21.70;5.20;;;;;;;22.07;86.58;99710.61;109938;1276;22192;-61
2023/08/25 07:12:10;;;;;;;14.10;5.00;;;;;;;22.16;86.74;99710.61;109969;1273;22927;-59
2023/08/25 07:14:41;;;;;;;14.10;4.80;;;;;;;22.28;86.89;99703.48;109942;1271;22401;-59
2023/08/25 07:17:12;;;;;;;15.80;5.30;;;;;;;22.40;86.77;99700.59;109960;1268;23341;-61
2023/08/25 07:19:43;;;;;;;14.70;4.40;;;;;;;22.51;86.32;99700.05;109973;1264;22195;-61
2023/08/25 07:22:14;;;;;;;13.80;5.10;;;;;;;22.61;86.10;99701.78;109959;1273;22315;-61
2023/08/25 07:24:47;;;;;;;16.00;6.10;;;;;;;22.73;86.21;99701.84;109970;1273;22255;-60
2023/08/25 07:27:18;;;;;;;11.60;3.70;;;;;;;22.84;85.51;99707.95;109976;1270;22333;-61
2023/08/25 07:29:49;;;;;;;12.30;4.50;;;;;;;22.94;85.40;99705.59;109973;1271;22735;-62
2023/08/25 07:32:19;;;;;;;14.00;4.20;;;;;;;23.10;85.58;99697.00;109971;1280;22212;-61
2023/08/25 07:34:50;;;;;;;10.30;3.80;;;;;;;23.22;85.02;99696.95;109989;1264;22218;-61
2023/08/25 07:37:22;;;;;;;12.80;4.80;;;;;;;23.32;84.42;99692.86;110010;1271;22150;-61
2023/08/25 07:39:55;;;;;;;14.80;5.40;;;;;;;23.40;84.26;99698.79;109982;1264;22352;-61
2023/08/25 07:42:26;;;;;;;11.10;3.60;;;;;;;23.49;84.01;99700.56;109969;1274;23395;-61
2023/08/25 07:44:58;;;;;;;15.60;4.00;;;;;;;23.60;83.51;99698.66;109943;1271;22111;-61
2023/08/25 07:47:29;;;;;;;16.30;4.30;;;;;;;23.69;83.11;99695.01;109938;1269;22303;-61
2023/08/25 07:50:01;;;;;;;16.60;3.80;;;;;;;23.73;82.66;99696.11;108688;1273;23978;-60
2023/08/25 07:52:32;;;;;;;9.10;4.30;;;;;;;23.79;82.77;99696.77;109980;1264;22314;-61
2023/08/25 07:55:03;;;;;;;13.00;4.40;;;;;;;23.88;82.62;99692.06;109948;1273;22367;-61
2023/08/25 07:57:34;;;;;;;15.40;5.00;;;;;;;23.94;82.30;99696.19;109965;1273;22205;-61
2023/08/25 08:00:14;;;;;;;15.90;4.20;;;;;;;24.05;82.17;99698.25;110001;1274;22277;-61
2023/08/25 08:02:45;;;;;;;15.10;4.50;;;;;;;24.16;81.70;99701.77;109951;1270;22320;-61
2023/08/25 08:05:17;;;;;;;13.90;4.70;;;;;;;24.27;81.75;99697.80;109944;1271;22798;-61
2023/08/25 08:07:48;;;;;;;18.00;4.40;;;;;;;24.37;81.31;99695.09;109999;1264;22912;-59
2023/08/25 08:10:20;;;;;;;15.00;4.00;;;;;;;24.44;80.86;99702.05;109961;1279;22894;-59
2023/08/25 08:12:51;;;;;;;11.20;3.50;;;;;;;24.52;80.90;99704.61;109956;1271;23244;-59
2023/08/25 08:15:24;;;;;;;12.80;4.30;;;;;;;24.59;80.13;99699.73;109965;1272;22378;-59
2023/08/25 08:17:55;;;;;;;10.30;3.70;;;;;;;24.66;79.86;99702.80;109931;1270;22351;-60
2023/08/25 08:20:27;;;;;;;10.10;3.60;;;;;;;24.76;80.06;99701.59;109912;1264;22251;-61
2023/08/25 08:22:58;;;;;;;12.70;4.20;;;;;;;24.87;79.77;99698.08;109927;1273;22357;-60
2023/08/25 08:25:30;;;;;;;8.30;3.30;;;;;;;24.99;79.09;99702.27;109962;1273;22339;-60
2023/08/25 08:28:01;;;;;;;12.10;3.60;;;;;;;25.09;78.96;99705.09;109917;1271;22232;-62
2023/08/25 08:30:32;;;;;;;12.00;3.70;;;;;;;25.19;78.80;99700.98;109947;1270;22403;-61
2023/08/25 08:33:05;;;;;;;13.50;6.00;;;;;;;25.27;78.25;99705.70;109939;1272;22338;-61
2023/08/25 08:35:36;;;;;;;13.00;3.70;;;;;;;25.35;77.67;99708.42;109951;1271;22469;-62
2023/08/25 08:38:08;;;;;;;9.10;3.20;;;;;;;25.43;77.79;99712.85;109900;1264;22402;-62
2023/08/25 08:40:40;;;;;;;12.00;3.60;;;;;;;25.52;77.16;99716.14;109913;1271;22182;-60
2023/08/25 08:43:15;;;;;;;10.00;3.20;;;;;;;25.61;76.99;99710.10;109921;1264;22163;-60
2023/08/25 08:45:51;;;;;;;11.00;4.00;;;;;;;25.72;77.20;99710.18;108464;1271;22919;-59
2023/08/25 08:48:23;;;;;;;10.50;3.20;;;;;;;25.79;76.28;99705.09;109957;1271;22339;-60
2023/08/25 08:50:56;;;;;;;10.20;3.10;;;;;;;25.86;75.81;99704.89;109931;1264;22347;-60
2023/08/25 08:53:28;;;;;;;8.40;2.20;;;;;;;25.92;75.31;99704.90;109877;1264;23577;-60
2023/08/25 08:56:00;;;;;;;16.50;6.40;;;;;;;25.97;75.07;99703.32;109909;1271;22349;-61
2023/08/25 08:58:32;;;;;;;12.70;3.30;;;;;;;26.06;74.78;99701.30;109941;1264;22974;-60
2023/08/25 09:01:05;;;;;;;8.50;2.90;;;;;;;26.16;74.43;99698.77;109822;1257;22176;-60
2023/08/25 09:03:38;;;;;;;14.50;3.00;;;;;;;26.24;73.69;99700.66;109973;1271;22204;-60
2023/08/25 09:06:10;;;;;;;6.80;2.50;;;;;;;26.34;72.86;99700.88;109960;1265;22314;-60
2023/08/25 09:08:42;;;;;;;6.00;2.00;;;;;;;26.44;72.52;99700.88;109942;1273;23148;-61
2023/08/25 09:11:16;;;;;;;7.70;2.30;;;;;;;26.54;72.49;99695.27;109937;1280;22288;-60
2023/08/25 09:13:58;;;;;;;10.70;2.60;;;;;;;26.63;71.76;99692.36;109965;1274;22217;-60
2023/08/25 09:16:30;;;;;;;12.50;2.40;;;;;;;26.70;71.07;99691.19;109966;1269;22353;-62
2023/08/25 09:19:03;;;;;;;12.30;2.60;;;;;;;26.75;71.00;99697.02;106487;1274;22527;-64
2023/08/25 09:21:35;;;;;;;8.40;2.30;;;;;;;26.80;70.41;99699.96;109937;1271;22418;-62
2023/08/25 09:24:07;;;;;;;7.40;1.50;;;;;;;26.88;69.27;99701.85;109957;1271;22154;-62
2023/08/25 09:26:39;;;;;;;4.80;1.40;;;;;;;26.93;67.42;99702.77;109937;1264;22189;-63
2023/08/25 09:29:10;;;;;;;11.20;1.60;;;;;;;26.95;66.47;99701.65;109927;1271;22357;-62
2023/08/25 09:31:42;;;;;;;7.60;1.90;;;;;;;26.99;66.85;99701.02;109983;1279;22688;-62
2023/08/25 09:34:17;;;;;;;5.50;1.80;;;;;;;27.06;66.43;99698.11;109940;1274;22160;-63
2023/08/25 09:36:56;;;;;;;4.60;1.20;;;;;;;27.11;64.78;99689.52;110014;1269;22587;-63
2023/08/25 09:39:27;;;;;;;7.50;1.50;;;;;;;27.17;64.26;99686.20;109986;1264;23029;-64
2023/08/25 09:42:06;;;;;;;6.10;1.70;;;;;;;27.24;63.36;99683.67;109985;1273;22409;-64
2023/08/25 09:44:37;;;;;;;6.50;1.50;;;;;;;27.28;63.18;99686.34;109960;1278;22054;-64
2023/08/25 09:47:10;;;;;;;6.90;1.50;;;;;;;27.31;63.26;99692.75;109950;1273;22167;-65
2023/08/25 09:49:42;;;;;;;7.50;1.80;;;;;;;27.39;63.23;99693.63;109965;1279;22855;-62
2023/08/25 09:52:17;;;;;;;8.10;1.40;;;;;;;27.49;62.75;99696.75;109958;1264;22876;-61
2023/08/25 09:54:49;;;;;;;6.90;1.50;;;;;;;27.55;62.01;99703.20;109937;1274;23377;-63
2023/08/25 09:57:20;;;;;;;7.60;1.40;;;;;;;27.58;61.43;99705.55;109980;1280;22328;-62
2023/08/25 09:59:51;;;;;;;7.60;1.30;;;;;;;27.62;60.82;99697.14;109982;1268;22313;-63
2023/08/25 10:02:24;;;;;;;8.40;1.80;;;;;;;27.67;59.88;99696.48;109889;1273;22326;-63
2023/08/25 10:04:56;;;;;;;7.90;1.50;;;;;;;27.71;60.05;99687.39;109950;1273;22165;-62
2023/08/25 10:07:29;;;;;;;10.30;1.40;;;;;;;27.73;59.47;99685.88;109937;1274;22310;-62
2023/08/25 10:10:00;;;;;;;10.70;1.40;;;;;;;27.76;59.50;99687.20;109983;1273;22186;-61
2023/08/25 10:12:32;;;;;;;3.80;1.00;;;;;;;27.86;59.65;99689.59;109965;1274;22394;-62
2023/08/25 10:15:05;;;;;;;7.00;1.30;;;;;;;27.94;58.47;99683.80;109999;1273;22206;-60
2023/08/25 10:17:39;;;;;;;5.30;1.30;;;;;;;27.96;58.38;99681.39;109974;1265;22319;-60
2023/08/25 10:20:14;;;;;;;6.10;1.40;;;;;;;28.01;58.13;99686.33;109976;1277;22178;-60
2023/08/25 10:22:49;;;;;;;8.70;1.30;;;;;;;28.10;58.94;99683.05;109983;1274;23232;-60
2023/08/25 10:25:21;;;;;;;7.40;1.60;;;;;;;28.23;58.31;99688.09;109961;1280;22190;-60
2023/08/25 10:27:53;;;;;;;7.90;1.70;;;;;;;28.32;57.99;99685.72;109953;1280;22344;-60
2023/08/25 10:30:25;;;;;;;7.20;1.40;;;;;;;28.39;57.92;99682.02;109948;1264;22343;-60
2023/08/25 10:33:01;;;;;;;7.50;1.30;;;;;;;28.49;57.70;99681.98;110002;1274;22309;-60
2023/08/25 10:35:43;;;;;;;7.40;1.40;;;;;;;28.58;57.55;99682.71;109999;1276;22266;-60
2023/08/25 10:38:37;;;;;;;4.60;1.60;;;;;;;28.61;56.91;99680.60;110006;1276;22351;-60
2023/08/25 10:41:15;;;;;;;6.30;1.50;;;;;;;28.66;57.30;99682.39;109976;1273;22371;-60
2023/08/25 10:43:52;;;;;;;9.80;1.40;;;;;;;28.74;57.29;99686.06;109995;1271;22774;-60
2023/08/25 10:46:24;;;;;;;10.30;1.30;;;;;;;28.80;56.68;99681.02;109970;1273;22194;-60
2023/08/25 10:49:08;;;;;;;9.30;1.50;;;;;;;28.84;56.44;99685.52;109984;1279;22929;-60
2023/08/25 10:51:39;;;;;;;5.40;1.20;;;;;;;28.89;56.91;99680.56;109964;1264;22178;-60
2023/08/25 10:54:19;;;;;;;6.50;1.40;;;;;;;28.99;56.66;99678.75;109955;1274;22210;-61
2023/08/25 10:56:50;;;;;;;9.20;1.60;;;;;;;29.08;56.54;99680.92;109938;1271;22146;-61
2023/08/25 10:59:23;;;;;;;5.30;1.20;;;;;;;29.16;55.58;99684.05;109870;1265;22292;-61
2023/08/25 11:02:00;;;;;;;6.60;1.20;;;;;;;29.22;55.56;99686.59;109991;1279;22945;-60
2023/08/25 11:04:31;;;;;;;7.70;1.50;;;;;;;29.26;55.38;99690.73;109911;1272;22318;-61
2023/08/25 11:07:03;;;;;;;4.60;1.20;;;;;;;29.31;55.64;99688.29;109978;1274;23376;-61
2023/08/25 11:09:35;;;;;;;5.70;1.40;;;;;;;29.35;55.27;99686.40;109962;1273;22202;-61
2023/08/25 11:12:37;;;;;;;6.20;1.40;;;;;;;29.39;55.29;99685.17;108381;1265;26529;-60
2023/08/25 11:15:20;;;;;;;10.40;1.00;;;;;;;29.44;54.77;99681.49;109900;1264;22359;-61
2023/08/25 11:17:55;;;;;;;5.80;1.20;;;;;;;29.45;54.67;99686.00;109874;1277;22952;-61
2023/08/25 11:20:27;;;;;;;7.40;1.70;;;;;;;29.48;54.61;99689.98;109975;1270;22172;-61
2023/08/25 11:23:00;;;;;;;4.70;1.00;;;;;;;29.51;54.29;99692.27;109801;1264;211303;-61
2023/08/25 11:25:34;;;;;;;11.40;1.50;;;;;;;29.51;54.10;99690.97;109885;1279;22962;-61
2023/08/25 11:28:06;;;;;;;6.50;1.50;;;;;;;29.51;54.02;99689.84;109976;1268;22345;-61
2023/08/25 11:30:40;;;;;;;10.20;1.30;;;;;;;29.55;54.26;99683.77;109968;1277;22161;-61
2023/08/25 11:33:18;;;;;;;7.20;1.40;;;;;;;29.58;54.01;99676.46;109974;1270;22203;-61
2023/08/25 11:35:49;;;;;;;9.50;1.40;;;;;;;29.61;53.86;99676.46;109982;1274;22136;-61
2023/08/25 11:38:20;;;;;;;4.90;1.20;;;;;;;29.65;54.29;99680.89;109993;1277;22158;-61
2023/08/25 11:40:56;;;;;;;7.00;1.50;;;;;;;29.69;53.90;99683.89;109966;1265;22196;-61
2023/08/25 11:43:32;;;;;;;7.20;1.40;;;;;;;29.72;54.02;99683.10;109942;1277;22186;-61